Time;durP1;ratioP1;P1;durP2;ratioP2;P2;SDS_P1;SDS_P2;PMS_P1;PMS_P2;Temp;Humidity;BMP_temperature;BMP_pressure;BME280_temperature;BME280_humidity;BME280_pressure;Samples;Min_cycle;Max_cycle;Signal;HPM_P1;HPM_P2
2023/07/04 00:01:15;;;;;;;17.00;10.30;;;;;;;23.33;60.81;98971.69;4405672;32;34046;-93
2023/07/04 00:03:44;;;;;;;15.48;10.98;;;;;;;23.23;61.09;98984.44;4378936;32;33403;-90
2023/07/04 00:06:14;;;;;;;18.83;10.48;;;;;;;23.24;61.12;98981.72;4378624;32;34070;-92
2023/07/04 00:08:41;;;;;;;17.75;11.27;;;;;;;23.29;61.03;98981.53;4403705;32;33954;-92
2023/07/04 00:11:11;;;;;;;16.67;10.52;;;;;;;23.18;61.25;98981.97;4405547;32;33365;-95
2023/07/04 00:13:39;;;;;;;17.00;10.45;;;;;;;23.24;61.02;98986.16;4403918;32;33471;-91
2023/07/04 00:16:08;;;;;;;14.30;8.93;;;;;;;;;;4404541;32;33903;-90
2023/07/04 00:18:39;;;;;;;15.27;9.73;;;;;;;23.36;60.57;98976.84;4403638;32;33718;-92
2023/07/04 00:21:12;;;;;;;15.13;9.23;;;;;;;23.38;60.36;98980.31;4389442;32;32352;-91
2023/07/04 00:23:45;;;;;;;16.15;9.70;;;;;;;23.35;60.17;98977.78;4369114;32;32541;-93
2023/07/04 00:26:16;;;;;;;13.77;8.77;;;;;;;23.25;60.21;98970.22;4392430;32;34514;-91
2023/07/04 00:28:44;;;;;;;12.88;8.32;;;;;;;;;;4403545;32;33931;-90
2023/07/04 00:31:15;;;;;;;13.98;8.27;;;;;;;23.13;59.48;98975.16;4391790;32;33892;-93
2023/07/04 00:33:44;;;;;;;14.00;8.40;;;;;;;23.03;59.77;98979.97;4403475;32;33474;-92
2023/07/04 00:36:16;;;;;;;11.50;6.90;;;;;;;23.07;59.57;98976.31;4391182;32;32289;-91
2023/07/04 00:38:49;;;;;;;14.15;8.43;;;;;;;23.08;59.81;98979.81;4401206;32;34997;-91
2023/07/04 00:41:20;;;;;;;12.93;8.13;;;;;;;22.88;60.35;98986.72;4391037;32;34020;-93
2023/07/04 00:44:00;;;;;;;11.85;7.90;;;;;;;22.77;60.61;98975.72;4404138;32;33557;-92
2023/07/04 00:46:40;;;;;;;13.70;8.23;;;;;;;22.93;59.88;98971.56;4399108;32;34747;-93
2023/07/04 00:49:45;;;;;;;12.07;7.57;;;;;;;22.81;60.36;98975.53;4392095;32;33891;-93
2023/07/04 00:52:24;;;;;;;11.95;7.30;;;;;;;22.84;60.36;98969.25;4395676;32;33977;-91
2023/07/04 00:54:57;;;;;;;13.10;8.20;;;;;;;22.89;60.34;98969.94;4403898;32;33452;-92
2023/07/04 00:57:33;;;;;;;14.02;8.57;;;;;;;22.75;60.96;98978.41;4388998;32;34399;-95
2023/07/04 01:00:12;;;;;;;12.10;8.00;;;;;;;22.58;61.30;98972.94;4388847;32;34052;-91
2023/07/04 01:02:40;;;;;;;11.52;7.90;;;;;;;22.78;61.01;98978.28;4376893;32;33811;-92
2023/07/04 01:05:10;;;;;;;13.90;7.97;;;;;;;22.87;60.70;98981.50;4393584;32;33144;-91
2023/07/04 01:07:42;;;;;;;13.18;8.50;;;;;;;22.83;60.97;98978.09;4404254;32;33648;-91
2023/07/04 01:10:19;;;;;;;12.77;7.90;;;;;;;22.94;60.61;98973.28;4402364;32;33535;-94
2023/07/04 01:12:46;;;;;;;13.68;7.45;;;;;;;22.98;60.48;98969.59;4390544;32;32446;-91
2023/07/04 01:15:14;;;;;;;13.93;8.48;;;;;;;23.00;60.12;98967.75;4402461;32;33524;-93
2023/07/04 01:17:42;;;;;;;13.07;7.75;;;;;;;22.85;60.58;98964.84;4403034;32;33873;-91
2023/07/04 01:20:11;;;;;;;13.35;8.38;;;;;;;22.79;60.79;98965.94;4395783;32;33746;-93
2023/07/04 01:22:55;;;;;;;11.68;7.60;;;;;;;22.97;60.12;98964.37;4397893;32;34591;-94
2023/07/04 01:25:28;;;;;;;16.42;7.87;;;;;;;23.03;59.98;98965.00;4403040;32;33897;-94
2023/07/04 01:28:03;;;;;;;11.07;7.10;;;;;;;22.93;60.08;98965.41;4390748;32;33122;-92
2023/07/04 01:30:32;;;;;;;12.67;8.23;;;;;;;22.91;60.02;98972.50;4400057;32;33973;-95
2023/07/04 01:33:00;;;;;;;11.15;7.47;;;;;;;22.64;61.01;98974.47;4401216;32;33981;-92
2023/07/04 01:35:28;;;;;;;11.60;7.37;;;;;;;22.86;60.33;98985.91;4402719;32;33397;-92
2023/07/04 01:37:56;;;;;;;11.75;7.55;;;;;;;22.56;61.23;98985.34;4401101;32;34425;-93
2023/07/04 01:40:25;;;;;;;11.65;7.53;;;;;;;22.19;61.84;98999.09;4401224;32;35299;-92
2023/07/04 01:42:53;;;;;;;11.32;7.35;;;;;;;22.16;61.92;99005.38;4388718;32;33752;-92
2023/07/04 01:45:21;;;;;;;17.87;8.10;;;;;;;22.01;62.74;99003.22;4388816;32;33424;-92
2023/07/04 01:47:48;;;;;;;12.35;7.37;;;;;;;21.91;63.69;99007.12;4382555;32;33281;-92
2023/07/04 01:50:16;;;;;;;13.30;7.35;;;;;;;21.83;64.50;99010.91;4388601;32;34021;-91
2023/07/04 01:52:44;;;;;;;12.68;8.10;;;;;;;21.83;64.72;99012.69;4388151;32;33139;-93
2023/07/04 01:55:13;;;;;;;15.35;7.82;;;;;;;21.61;65.52;99012.56;4391977;32;34407;-92
2023/07/04 01:57:41;;;;;;;12.57;7.78;;;;;;;21.66;65.36;99026.44;4403134;32;34330;-91
2023/07/04 02:00:12;;;;;;;14.50;8.07;;;;;;;21.51;65.92;99024.34;4402621;32;34929;-91
2023/07/04 02:02:53;;;;;;;14.80;7.78;;;;;;;21.48;66.07;99027.97;4411360;32;34169;-91
2023/07/04 02:05:21;;;;;;;11.88;8.13;;;;;;;21.45;66.40;99043.88;4402311;32;32943;-92
2023/07/04 02:07:49;;;;;;;12.95;8.18;;;;;;;21.46;66.38;99055.28;4402309;32;34766;-89
2023/07/04 02:10:16;;;;;;;13.68;7.93;;;;;;;21.73;66.14;99067.53;4404539;32;34220;-90
2023/07/04 02:12:44;;;;;;;13.38;8.23;;;;;;;22.01;65.53;99075.38;4405844;32;34290;-89
2023/07/04 02:15:12;;;;;;;12.63;7.43;;;;;;;22.00;65.64;99072.78;4404972;32;34138;-89
2023/07/04 02:17:40;;;;;;;15.07;8.63;;;;;;;22.21;65.09;99060.62;4406313;32;33566;-90
2023/07/04 02:20:08;;;;;;;14.38;8.38;;;;;;;22.13;65.43;99068.81;4405235;32;34134;-94
2023/07/04 02:22:41;;;;;;;12.60;8.48;;;;;;;22.16;65.03;99068.72;4392588;32;34348;-88
2023/07/04 02:25:09;;;;;;;12.80;8.32;;;;;;;22.18;63.82;99077.44;4406504;32;34242;-87
2023/07/04 02:27:37;;;;;;;16.50;10.25;;;;;;;21.99;64.85;99085.13;4404283;32;33941;-93
2023/07/04 02:30:05;;;;;;;19.35;10.70;;;;;;;22.09;63.91;99089.16;4402508;32;34237;-87
2023/07/04 02:32:33;;;;;;;18.12;10.48;;;;;;;22.07;63.94;99095.41;4403528;32;34076;-88
2023/07/04 02:35:03;;;;;;;17.05;10.52;;;;;;;22.08;64.38;99100.63;4403912;32;32715;-88
2023/07/04 02:37:30;;;;;;;19.50;12.02;;;;;;;22.05;64.68;99102.53;4404243;32;34701;-87
2023/07/04 02:39:58;;;;;;;20.05;12.45;;;;;;;22.13;64.85;99105.78;4403380;32;33817;-88
2023/07/04 02:42:26;;;;;;;18.98;11.80;;;;;;;21.58;66.31;99108.50;4405257;32;34764;-87
2023/07/04 02:44:55;;;;;;;18.33;11.38;;;;;;;21.90;65.34;99108.34;4404307;32;33308;-88
2023/07/04 02:47:26;;;;;;;18.75;10.68;;;;;;;22.00;64.82;99115.88;4392020;32;34062;-92
2023/07/04 02:49:54;;;;;;;17.37;10.93;;;;;;;21.69;66.23;99118.69;4407971;32;34177;-87
2023/07/04 02:52:24;;;;;;;20.90;10.75;;;;;;;21.55;66.39;99118.28;4404975;32;33575;-87
2023/07/04 02:54:52;;;;;;;17.75;11.30;;;;;;;21.61;66.54;99123.38;4405171;32;33938;-87
2023/07/04 02:57:22;;;;;;;17.83;10.93;;;;;;;20.92;68.53;99132.56;4403690;32;34559;-89
2023/07/04 02:59:50;;;;;;;17.40;10.75;;;;;;;20.84;68.86;99130.16;4402891;32;35384;-89
2023/07/04 03:02:18;;;;;;;18.95;10.45;;;;;;;20.58;70.19;99125.63;4402996;32;34174;-88
2023/07/04 03:04:51;;;;;;;16.25;10.02;;;;;;;20.79;69.42;99130.25;4390504;32;33337;-89
2023/07/04 03:07:19;;;;;;;17.10;10.98;;;;;;;21.03;68.71;99130.47;4404421;32;33703;-90
2023/07/04 03:09:48;;;;;;;17.55;10.00;;;;;;;20.84;69.30;99125.75;4390716;32;33171;-90
2023/07/04 03:12:15;;;;;;;18.37;11.57;;;;;;;20.78;69.62;99128.53;4404235;32;33881;-88
2023/07/04 03:14:44;;;;;;;17.92;10.50;;;;;;;20.95;68.94;99124.53;4402911;32;33262;-88
2023/07/04 03:17:12;;;;;;;19.25;11.18;;;;;;;21.05;68.40;99123.34;4403207;32;34431;-88
2023/07/04 03:19:40;;;;;;;16.10;10.15;;;;;;;20.77;69.25;99123.31;4402021;32;34755;-87
2023/07/04 03:22:07;;;;;;;17.85;10.52;;;;;;;20.73;70.23;99117.28;4403931;32;34674;-87
2023/07/04 03:24:35;;;;;;;16.77;10.13;;;;;;;20.89;70.01;99121.19;4404042;32;33593;-87
2023/07/04 03:27:04;;;;;;;15.63;10.88;;;;;;;21.25;68.14;99115.72;4404277;32;34086;-87
2023/07/04 03:29:32;;;;;;;19.33;11.30;;;;;;;21.45;67.69;99114.25;4405359;32;34179;-87
2023/07/04 03:32:00;;;;;;;18.20;10.18;;;;;;;21.56;67.55;99110.34;4404166;32;34134;-87
2023/07/04 03:34:28;;;;;;;18.83;10.88;;;;;;;21.69;67.83;99108.16;4404173;32;34343;-87
2023/07/04 03:36:56;;;;;;;15.00;10.02;;;;;;;21.18;68.82;99108.03;4405740;32;33871;-87
2023/07/04 03:39:24;;;;;;;17.83;10.60;;;;;;;20.55;70.91;99107.28;4404744;32;35661;-87
2023/07/04 03:41:51;;;;;;;16.98;10.20;;;;;;;20.87;69.76;99106.31;4404856;32;33806;-86
2023/07/04 03:44:20;;;;;;;15.15;9.98;;;;;;;21.32;68.57;99098.75;4404185;32;34892;-85
2023/07/04 03:46:51;;;;;;;18.37;10.02;;;;;;;21.54;68.53;99101.59;4388817;32;33632;-87
2023/07/04 03:49:19;;;;;;;18.23;10.98;;;;;;;21.77;67.95;99099.97;4405028;32;33477;-86
2023/07/04 03:51:46;;;;;;;14.68;9.70;;;;;;;21.69;67.50;99104.66;4404687;32;33791;-87
2023/07/04 03:54:14;;;;;;;19.60;10.63;;;;;;;21.67;67.57;99102.06;4403823;32;33202;-86
2023/07/04 03:56:42;;;;;;;17.02;10.00;;;;;;;21.45;68.10;99109.81;4404802;32;34058;-88
2023/07/04 03:59:09;;;;;;;19.50;9.75;;;;;;;21.52;68.08;99105.22;4404997;32;34203;-86
2023/07/04 04:01:37;;;;;;;17.98;10.68;;;;;;;21.59;67.69;99110.25;4404543;32;33551;-87
2023/07/04 04:04:05;;;;;;;17.42;10.70;;;;;;;21.67;67.39;99107.34;4402877;32;33512;-87
2023/07/04 04:06:32;;;;;;;16.23;10.02;;;;;;;21.62;67.42;99103.97;4403961;32;34056;-87
2023/07/04 04:09:00;;;;;;;17.70;10.23;;;;;;;21.70;67.14;99101.94;4405610;32;35142;-87
2023/07/04 04:11:28;;;;;;;17.02;9.93;;;;;;;21.68;67.36;99109.06;4403610;32;33780;-86
2023/07/04 04:13:55;;;;;;;16.52;10.68;;;;;;;21.76;67.45;99101.75;4404820;32;33562;-87
2023/07/04 04:16:23;;;;;;;16.20;9.93;;;;;;;21.98;66.94;99104.53;4402307;32;33695;-87
2023/07/04 04:18:51;;;;;;;14.27;9.95;;;;;;;22.32;66.24;99112.16;4404693;32;33627;-87
2023/07/04 04:21:18;;;;;;;17.83;10.57;;;;;;;21.90;67.01;99103.06;4403555;32;34772;-86
2023/07/04 04:23:46;;;;;;;17.23;9.88;;;;;;;21.82;67.60;99104.19;4404577;32;33514;-87
2023/07/04 04:26:15;;;;;;;16.83;10.38;;;;;;;21.09;69.68;99101.25;4402981;32;33709;-86
2023/07/04 04:28:42;;;;;;;18.90;11.55;;;;;;;20.93;69.99;99103.50;4403189;32;34144;-87
2023/07/04 04:31:11;;;;;;;16.87;10.00;;;;;;;21.51;68.55;99099.06;4401935;32;34020;-88
2023/07/04 04:33:39;;;;;;;18.00;10.10;;;;;;;21.69;68.60;99089.69;4404353;32;33545;-87
2023/07/04 04:36:06;;;;;;;17.17;9.63;;;;;;;21.79;68.27;99090.25;4404818;32;33686;-87
2023/07/04 04:38:36;;;;;;;16.17;10.50;;;;;;;21.59;68.23;99085.59;4404426;32;33899;-87
2023/07/04 04:41:05;;;;;;;19.02;11.02;;;;;;;21.50;68.35;99084.16;4402266;32;33518;-87
2023/07/04 04:43:32;;;;;;;21.62;11.80;;;;;;;21.15;69.64;99093.16;4401613;32;33432;-85
2023/07/04 04:46:00;;;;;;;18.98;11.00;;;;;;;21.06;70.05;99096.97;4402428;32;34816;-86
2023/07/04 04:48:35;;;;;;;17.95;10.63;;;;;;;20.98;70.55;99117.41;4402822;32;34278;-87
2023/07/04 04:51:08;;;;;;;20.85;10.80;;;;;;;21.15;70.04;99116.91;4403074;32;33318;-87
2023/07/04 04:53:36;;;;;;;19.33;10.40;;;;;;;21.08;70.18;99123.25;4404164;32;34633;-86
2023/07/04 04:56:04;;;;;;;18.20;9.95;;;;;;;21.24;69.56;99121.88;4403226;32;34992;-87
2023/07/04 04:58:32;;;;;;;17.10;10.10;;;;;;;21.36;69.11;99126.78;4402627;32;33797;-86
2023/07/04 05:01:15;;;;;;;16.65;10.50;;;;;;;21.20;69.84;99122.88;4401522;32;34018;-87
2023/07/04 05:03:43;;;;;;;15.27;9.60;;;;;;;21.52;69.13;99126.31;4402996;32;34479;-87
2023/07/04 05:06:12;;;;;;;15.75;10.20;;;;;;;21.57;68.61;99127.03;4404516;32;33847;-87
2023/07/04 05:08:39;;;;;;;15.82;10.00;;;;;;;21.24;70.20;99134.19;4405154;32;33859;-87
2023/07/04 05:11:07;;;;;;;19.42;10.68;;;;;;;21.58;68.76;99128.75;4402725;32;34390;-86
2023/07/04 05:13:37;;;;;;;15.27;9.68;;;;;;;21.09;70.08;99130.25;4402128;32;34342;-86
2023/07/04 05:16:08;;;;;;;17.77;10.98;;;;;;;21.35;69.27;99119.78;4403039;32;34750;-85
2023/07/04 05:18:37;;;;;;;16.02;10.25;;;;;;;21.50;68.96;99130.78;4401832;32;33902;-87
2023/07/04 05:21:12;;;;;;;17.67;10.15;;;;;;;21.72;69.01;99130.94;4403920;32;33979;-87
2023/07/04 05:23:42;;;;;;;17.05;10.38;;;;;;;21.69;68.83;99142.44;4403858;32;33944;-88
2023/07/04 05:26:12;;;;;;;18.95;10.38;;;;;;;21.19;70.02;99147.53;4402907;32;35268;-87
2023/07/04 05:28:40;;;;;;;18.30;10.95;;;;;;;21.23;70.54;99149.16;4403938;32;34273;-87
2023/07/04 05:31:10;;;;;;;19.02;10.73;;;;;;;21.14;70.94;99160.84;4403203;32;33625;-87
2023/07/04 05:33:42;;;;;;;17.87;10.63;;;;;;;21.51;70.20;99153.59;4410714;32;34277;-86
2023/07/04 05:36:43;;;;;;;16.83;10.52;;;;;;;21.64;69.97;99154.06;4406144;32;33965;-88
2023/07/04 05:39:10;;;;;;;17.20;9.68;;;;;;;21.69;69.97;99160.06;4402123;32;35724;-87
2023/07/04 05:41:39;;;;;;;16.75;9.43;;;;;;;21.36;70.46;99158.44;4404529;32;34703;-87
2023/07/04 05:44:08;;;;;;;16.58;9.45;;;;;;;21.25;70.46;99168.44;4390100;32;33804;-87
2023/07/04 05:46:37;;;;;;;18.20;9.98;;;;;;;21.33;70.61;99163.81;4402798;32;33638;-87
2023/07/04 05:49:05;;;;;;;18.92;10.05;;;;;;;20.93;72.07;99163.25;4403072;32;35037;-86
2023/07/04 05:51:33;;;;;;;17.10;10.25;;;;;;;21.29;70.69;99170.06;4405617;32;33761;-87
2023/07/04 05:54:00;;;;;;;15.63;9.52;;;;;;;21.49;70.39;99174.75;4406396;32;33517;-87
2023/07/04 05:56:29;;;;;;;15.35;9.13;;;;;;;21.44;70.16;99170.50;4404648;32;33739;-87
2023/07/04 05:59:01;;;;;;;13.55;9.25;;;;;;;21.53;70.01;99170.25;4406026;32;34622;-87
2023/07/04 06:01:42;;;;;;;17.10;10.27;;;;;;;21.44;70.27;99170.50;4399840;32;34652;-88
2023/07/04 06:04:11;;;;;;;15.57;8.93;;;;;;;21.44;70.79;99178.44;4402232;32;33307;-88
2023/07/04 06:07:01;;;;;;;15.23;9.02;;;;;;;21.20;70.94;99175.59;4402975;32;34088;-88
2023/07/04 06:09:29;;;;;;;14.60;9.23;;;;;;;21.46;70.47;99171.34;4404999;32;34825;-86
2023/07/04 06:11:56;;;;;;;15.15;9.75;;;;;;;21.36;70.39;99182.16;4416665;32;33239;-87
2023/07/04 06:14:26;;;;;;;13.88;9.07;;;;;;;21.46;70.56;99182.75;4403790;32;33373;-88
2023/07/04 06:16:59;;;;;;;14.95;9.65;;;;;;;21.21;71.29;99181.75;4401918;32;33704;-88
2023/07/04 06:19:27;;;;;;;17.67;10.68;;;;;;;21.05;71.93;99176.94;4388489;32;34481;-88
2023/07/04 06:21:55;;;;;;;14.65;9.98;;;;;;;21.12;72.29;99185.53;4401439;32;32611;-88
2023/07/04 06:24:25;;;;;;;13.75;9.65;;;;;;;21.22;72.57;99183.50;4404340;32;33653;-87
2023/07/04 06:26:52;;;;;;;16.48;9.88;;;;;;;21.66;70.60;99181.25;4404287;32;34807;-87
2023/07/04 06:29:20;;;;;;;13.23;9.15;;;;;;;21.74;70.39;99182.72;4404337;32;33933;-87
2023/07/04 06:31:49;;;;;;;17.10;9.48;;;;;;;21.67;70.98;99186.50;4405107;32;33840;-87
2023/07/04 06:34:16;;;;;;;17.95;10.25;;;;;;;21.59;70.72;99188.50;4403018;32;33657;-87
2023/07/04 06:36:48;;;;;;;15.85;10.98;;;;;;;21.62;71.31;99189.25;4393888;32;33942;-87
2023/07/04 06:39:15;;;;;;;14.75;9.95;;;;;;;21.61;70.62;99184.06;4387606;32;33853;-94
2023/07/04 06:41:43;;;;;;;14.85;10.02;;;;;;;21.61;70.77;99184.91;4403914;32;34565;-87
2023/07/04 06:44:11;;;;;;;16.77;10.10;;;;;;;21.62;70.36;99184.00;4404560;32;33932;-87
2023/07/04 06:46:39;;;;;;;15.50;9.45;;;;;;;22.08;69.17;99186.91;4405408;32;33868;-87
2023/07/04 06:49:06;;;;;;;13.57;9.60;;;;;;;22.36;67.61;99181.56;4391070;32;33849;-87
2023/07/04 06:51:34;;;;;;;16.42;9.32;;;;;;;22.17;67.42;99185.78;4402227;32;33748;-87
2023/07/04 06:54:02;;;;;;;16.75;9.82;;;;;;;22.38;66.99;99177.09;4404796;32;34271;-87
2023/07/04 06:56:30;;;;;;;14.13;9.75;;;;;;;22.39;66.70;99185.87;4403470;32;33531;-87
2023/07/04 06:58:58;;;;;;;14.95;9.30;;;;;;;22.30;67.14;99182.62;4404293;32;34697;-87
2023/07/04 07:01:29;;;;;;;16.35;9.85;;;;;;;22.40;67.13;99190.25;4396825;32;34626;-87
2023/07/04 07:03:57;;;;;;;14.77;10.43;;;;;;;22.39;67.77;99185.87;4403618;32;33350;-87
2023/07/04 07:06:26;;;;;;;15.40;10.43;;;;;;;22.39;68.29;99186.75;4401619;32;34446;-87
2023/07/04 07:08:54;;;;;;;18.30;11.20;;;;;;;22.48;68.32;99185.56;4402263;32;34250;-86
2023/07/04 07:11:22;;;;;;;18.15;12.27;;;;;;;22.29;67.69;99178.28;4401755;32;33629;-94
2023/07/04 07:13:50;;;;;;;19.00;11.77;;;;;;;21.98;69.06;99182.84;4391673;32;34209;-87
2023/07/04 07:16:20;;;;;;;19.25;11.98;;;;;;;22.04;69.06;99175.56;4405863;32;33552;-87
2023/07/04 07:18:49;;;;;;;19.73;11.60;;;;;;;22.16;69.31;99173.47;4405703;32;33803;-87
2023/07/04 07:21:20;;;;;;;20.80;12.23;;;;;;;22.34;68.58;99178.13;4403124;32;35076;-86
2023/07/04 07:23:48;;;;;;;20.58;11.80;;;;;;;21.89;70.88;99181.38;4403838;32;34734;-87
2023/07/04 07:26:23;;;;;;;22.73;11.77;;;;;;;22.16;70.29;99177.00;4404746;32;34598;-88
2023/07/04 07:28:51;;;;;;;19.65;11.75;;;;;;;22.42;70.27;99180.47;4405791;32;35013;-86
2023/07/04 07:31:23;;;;;;;15.77;10.35;;;;;;;21.95;72.10;99182.94;4404865;32;33954;-86
2023/07/04 07:33:53;;;;;;;21.05;10.43;;;;;;;21.55;71.92;99185.09;4402714;32;33532;-87
2023/07/04 07:36:27;;;;;;;16.08;10.25;;;;;;;22.07;69.78;99175.47;4405042;32;34071;-86
2023/07/04 07:38:55;;;;;;;17.08;10.20;;;;;;;22.06;69.77;99183.47;4405089;32;33790;-89
2023/07/04 07:41:29;;;;;;;15.50;9.20;;;;;;;21.96;68.75;99171.47;4406039;32;34017;-95
2023/07/04 07:43:57;;;;;;;14.18;9.90;;;;;;;21.82;69.31;99183.38;4403857;32;34409;-87
2023/07/04 07:46:24;;;;;;;16.20;9.40;;;;;;;22.01;69.43;99173.06;4404286;32;34840;-86
2023/07/04 07:48:52;;;;;;;14.38;10.02;;;;;;;22.27;69.31;99185.37;4403709;32;34159;-85
2023/07/04 07:51:19;;;;;;;14.87;9.25;;;;;;;22.39;69.72;99180.59;4404059;32;33975;-86
2023/07/04 07:53:49;;;;;;;14.63;9.18;;;;;;;22.55;69.81;99189.72;4405915;32;33456;-87
2023/07/04 07:56:18;;;;;;;14.07;9.25;;;;;;;22.36;70.14;99191.28;4404976;32;33998;-87
2023/07/04 07:58:46;;;;;;;18.23;9.95;;;;;;;22.41;70.63;99197.25;4399810;32;33412;-87
2023/07/04 08:01:20;;;;;;;13.52;8.00;;;;;;;22.20;71.10;99199.75;4404185;32;33916;-86
2023/07/04 08:03:48;;;;;;;13.62;8.20;;;;;;;21.87;71.04;99199.91;4404649;32;33119;-90
2023/07/04 08:06:23;;;;;;;12.00;8.00;;;;;;;22.26;69.61;99206.56;4406043;32;33913;-86
2023/07/04 08:08:52;;;;;;;14.32;8.05;;;;;;;22.34;67.50;99199.25;4404434;32;34738;-87
2023/07/04 08:11:20;;;;;;;12.00;7.53;;;;;;;22.39;68.03;99201.72;4402812;32;34247;-86
2023/07/04 08:13:47;;;;;;;12.77;7.87;;;;;;;22.08;69.69;99208.00;4400520;32;33723;-92
2023/07/04 08:16:23;;;;;;;15.00;8.80;;;;;;;22.43;69.26;99214.78;4389040;32;34861;-88
2023/07/04 08:18:51;;;;;;;13.30;8.75;;;;;;;22.30;70.12;99209.03;4390223;32;34914;-94
2023/07/04 08:21:19;;;;;;;13.15;8.13;;;;;;;22.06;70.15;99215.13;4390651;32;33743;-86
2023/07/04 08:23:47;;;;;;;15.25;8.57;;;;;;;22.22;69.67;99216.37;4390265;32;33109;-86
2023/07/04 08:26:20;;;;;;;13.77;8.52;;;;;;;22.40;69.91;99219.31;4396640;32;33822;-90
2023/07/04 08:28:52;;;;;;;14.75;8.27;;;;;;;22.36;70.66;99220.34;4405099;32;34148;-86
2023/07/04 08:31:20;;;;;;;14.73;8.73;;;;;;;22.79;69.58;99217.03;4403902;32;33726;-85
2023/07/04 08:33:49;;;;;;;16.90;9.65;;;;;;;22.68;69.66;99209.47;4400791;32;33143;-86
2023/07/04 08:36:17;;;;;;;14.70;9.88;;;;;;;22.82;69.31;99206.34;4405345;32;33847;-86
2023/07/04 08:38:49;;;;;;;16.00;9.55;;;;;;;22.74;70.25;99208.41;4405483;32;34904;-87
2023/07/04 08:41:35;;;;;;;16.27;9.60;;;;;;;23.06;69.13;99201.97;4405571;32;34132;-91
2023/07/04 08:44:11;;;;;;;14.85;9.25;;;;;;;22.96;69.41;99205.88;4403997;32;33140;-90
2023/07/04 08:46:41;;;;;;;13.15;8.02;;;;;;;23.14;68.79;99205.16;4403856;32;33482;-87
2023/07/04 08:49:22;;;;;;;13.57;8.07;;;;;;;23.07;67.96;99203.72;4404227;32;34859;-89
2023/07/04 08:51:56;;;;;;;15.77;8.38;;;;;;;23.11;68.05;99201.78;4395547;32;34024;-89
2023/07/04 08:54:24;;;;;;;11.93;6.82;;;;;;;22.89;69.13;99207.00;4401497;32;33881;-89
2023/07/04 08:57:00;;;;;;;12.63;7.65;;;;;;;22.94;69.00;99205.94;4381815;32;34935;-92
2023/07/04 08:59:40;;;;;;;13.88;7.75;;;;;;;22.91;69.01;99205.12;4389938;32;34978;-91
2023/07/04 09:02:14;;;;;;;12.60;7.10;;;;;;;22.86;69.20;99212.38;4404121;32;34136;-87
2023/07/04 09:05:34;;;;;;;12.37;7.60;;;;;;;22.90;68.90;99214.84;4405063;32;33788;-87
2023/07/04 09:08:17;;;;;;;13.00;7.20;;;;;;;23.14;68.94;99212.25;4342416;33;33571;-84
2023/07/04 09:10:47;;;;;;;14.73;7.20;;;;;;;23.20;69.17;99202.31;4342531;33;34171;-84
2023/07/04 09:13:27;;;;;;;12.07;7.35;;;;;;;23.08;69.42;99208.06;4375633;32;33596;-93
2023/07/04 09:15:57;;;;;;;15.05;7.78;;;;;;;23.13;69.92;99215.81;4391660;32;33481;-87
2023/07/04 09:18:33;;;;;;;15.20;7.78;;;;;;;23.27;69.61;99222.31;4391080;32;34809;-90
2023/07/04 09:21:09;;;;;;;16.37;7.62;;;;;;;23.24;70.51;99224.22;4404838;32;35143;-87
2023/07/04 09:23:37;;;;;;;16.48;7.85;;;;;;;23.45;67.98;99214.56;4403358;32;34632;-90
2023/07/04 09:26:07;;;;;;;9.60;6.20;;;;;;;23.44;67.65;99220.78;4400509;32;32661;-84
2023/07/04 09:28:36;;;;;;;14.02;7.32;;;;;;;23.65;65.75;99217.31;4403493;32;33718;-85
2023/07/04 09:31:05;;;;;;;11.18;6.82;;;;;;;23.32;67.95;99219.50;4404428;32;33748;-84
2023/07/04 09:33:34;;;;;;;12.65;7.37;;;;;;;23.19;67.58;99219.09;4404397;32;34058;-90
2023/07/04 09:36:02;;;;;;;13.38;7.07;;;;;;;23.25;68.43;99218.84;4403626;32;32922;-89
2023/07/04 09:38:54;;;;;;;12.07;7.47;;;;;;;23.53;68.41;99218.66;4403414;32;34127;-84
2023/07/04 09:41:26;;;;;;;13.15;7.50;;;;;;;23.75;68.38;99210.78;4390800;32;33161;-91
2023/07/04 09:43:56;;;;;;;12.93;7.60;;;;;;;23.69;66.09;99223.37;4403592;32;33981;-93
2023/07/04 09:46:26;;;;;;;12.30;7.22;;;;;;;23.43;68.42;99221.72;4377585;32;32701;-87
2023/07/04 09:48:56;;;;;;;12.57;7.97;;;;;;;23.87;65.09;99211.19;4399736;32;34112;-85
2023/07/04 09:51:29;;;;;;;11.57;7.37;;;;;;;23.58;64.20;99215.81;4403011;32;34872;-89
2023/07/04 09:54:19;;;;;;;13.95;7.05;;;;;;;23.68;64.04;99221.66;4403360;32;34956;-85
2023/07/04 09:56:46;;;;;;;10.45;7.40;;;;;;;23.71;65.31;99209.13;4403439;32;34412;-91
2023/07/04 09:59:19;;;;;;;11.80;7.40;;;;;;;24.06;60.11;99204.22;4403935;32;34065;-92
2023/07/04 10:01:48;;;;;;;11.95;7.62;;;;;;;23.84;62.45;99206.03;4402694;32;35002;-86
2023/07/04 10:04:32;;;;;;;14.18;7.93;;;;;;;24.00;63.01;99212.41;4403202;32;34798;-92
2023/07/04 10:07:00;;;;;;;16.08;8.35;;;;;;;23.88;65.74;99205.81;4390393;32;33707;-94
2023/07/04 10:09:29;;;;;;;14.35;7.85;;;;;;;23.61;64.87;99196.34;4402562;32;33191;-92
2023/07/04 10:12:09;;;;;;;12.43;6.82;;;;;;;24.10;64.77;99195.22;4401550;32;33768;-84
2023/07/04 10:36:56;;;;;;;10.63;5.97;;;;;;;24.23;67.77;99193.75;4945084;27;20094;-87
2023/07/04 10:39:25;;;;;;;11.02;4.90;;;;;;;24.39;62.61;99190.47;4392571;32;33495;-88
2023/07/04 10:41:59;;;;;;;7.82;4.65;;;;;;;24.28;58.37;99191.78;4405041;32;33057;-87
2023/07/04 10:44:30;;;;;;;9.15;4.50;;;;;;;24.49;60.71;99197.09;4389942;32;33672;-87
2023/07/04 10:47:04;;;;;;;10.85;4.55;;;;;;;24.53;60.03;99193.37;4390928;32;34278;-87
2023/07/04 10:49:37;;;;;;;8.75;4.10;;;;;;;24.78;57.03;99184.38;4389827;32;34188;-88
2023/07/04 10:52:29;;;;;;;6.25;3.30;;;;;;;24.58;56.14;99186.09;4390654;32;34220;-90
2023/07/04 10:54:58;;;;;;;7.32;3.47;;;;;;;24.88;55.19;99183.00;4392376;32;33011;-87
2023/07/04 10:57:32;;;;;;;7.85;4.12;;;;;;;24.68;56.18;99175.94;4404616;32;34169;-88
2023/07/04 11:00:14;;;;;;;6.43;3.20;;;;;;;24.87;62.20;99175.97;4404644;32;34255;-88
2023/07/04 11:02:49;;;;;;;8.13;3.45;;;;;;;24.83;63.29;99177.06;4404314;32;34073;-89
2023/07/04 11:05:44;;;;;;;8.70;3.87;;;;;;;24.87;63.83;99181.28;4392615;32;33541;-88
2023/07/04 11:08:17;;;;;;;7.25;3.55;;;;;;;25.38;60.63;99180.69;4397698;32;34018;-87
2023/07/04 11:10:50;;;;;;;7.18;3.00;;;;;;;25.44;56.63;99183.03;4404833;32;33739;-88
2023/07/04 11:13:20;;;;;;;8.45;3.10;;;;;;;25.97;52.03;99173.41;4405368;32;32575;-88
2023/07/04 11:15:52;;;;;;;5.37;2.58;;;;;;;25.84;56.90;99169.66;4404583;32;33896;-88
2023/07/04 11:18:26;;;;;;;5.95;3.05;;;;;;;25.83;50.49;99165.28;4404539;32;33825;-91
2023/07/04 11:21:13;;;;;;;5.85;3.15;;;;;;;25.90;60.71;99172.84;4404385;32;34533;-89
2023/07/04 11:23:49;;;;;;;7.57;3.05;;;;;;;26.02;59.24;99174.03;4405646;32;34296;-90
2023/07/04 11:26:18;;;;;;;5.60;2.90;;;;;;;25.95;60.21;99168.19;4404059;32;33782;-89
2023/07/04 11:28:48;;;;;;;6.47;2.80;;;;;;;26.01;56.76;99166.16;4404662;32;33872;-88
2023/07/04 11:31:21;;;;;;;6.70;2.78;;;;;;;26.29;53.98;99171.81;4404881;32;33791;-90
2023/07/04 11:33:52;;;;;;;6.68;2.95;;;;;;;26.32;50.50;99165.44;4393544;32;33457;-90
2023/07/04 11:36:26;;;;;;;7.00;2.90;;;;;;;26.41;56.33;99160.53;4405470;32;34020;-89
2023/07/04 11:39:03;;;;;;;9.32;2.87;;;;;;;26.64;56.33;99169.97;4404168;32;32572;-90
2023/07/04 11:41:42;;;;;;;8.43;2.62;;;;;;;26.53;58.55;99168.81;4389131;32;33197;-88
2023/07/04 11:44:30;;;;;;;7.00;2.40;;;;;;;26.59;58.64;99169.34;4404851;32;34767;-89
2023/07/04 11:47:06;;;;;;;6.07;2.80;;;;;;;26.39;59.77;99167.69;4404474;32;34580;-89
2023/07/04 11:49:35;;;;;;;6.18;2.50;;;;;;;26.28;60.10;99170.06;4405384;32;35070;-90
2023/07/04 11:52:08;;;;;;;5.10;2.72;;;;;;;26.12;60.33;99164.66;4389306;32;34015;-90
2023/07/04 11:54:36;;;;;;;7.07;2.60;;;;;;;25.93;61.33;99175.38;4391812;32;33258;-89
2023/07/04 11:57:06;;;;;;;6.78;2.60;;;;;;;25.88;61.21;99168.59;4404072;32;32682;-88
2023/07/04 11:59:44;;;;;;;5.20;2.40;;;;;;;25.88;60.75;99171.22;4404216;32;34336;-89
2023/07/04 12:02:26;;;;;;;8.30;2.15;;;;;;;26.05;59.60;99167.72;4404203;32;33303;-90
2023/07/04 12:04:54;;;;;;;6.03;2.90;;;;;;;26.15;59.50;99166.31;4405787;32;34068;-89